sensor_id;sensor_type;location;lat;lon;timestamp;pressure;altitude;pressure_sealevel;temperature;humidity
23261;BME280;11799;47.740;-3.390;2023-06-04T00:00:25;101512.72;;;16.62;100.00
23261;BME280;11799;47.740;-3.390;2023-06-04T00:02:50;101511.88;;;16.62;100.00
23261;BME280;11799;47.740;-3.390;2023-06-04T00:05:16;101514.13;;;16.57;100.00
23261;BME280;11799;47.740;-3.390;2023-06-04T00:07:42;101512.31;;;16.57;100.00
23261;BME280;11799;47.740;-3.390;2023-06-04T00:10:08;101513.44;;;16.55;100.00
23261;BME280;11799;47.740;-3.390;2023-06-04T00:12:33;101514.28;;;16.55;100.00
23261;BME280;11799;47.740;-3.390;2023-06-04T00:14:59;101512.59;;;16.54;100.00
23261;BME280;11799;47.740;-3.390;2023-06-04T00:17:24;101511.03;;;16.51;100.00
23261;BME280;11799;47.740;-3.390;2023-06-04T00:19:50;101519.03;;;16.51;100.00
23261;BME280;11799;47.740;-3.390;2023-06-04T00:22:16;101511.19;;;16.50;100.00
23261;BME280;11799;47.740;-3.390;2023-06-04T00:24:42;101505.84;;;16.50;100.00
23261;BME280;11799;47.740;-3.390;2023-06-04T00:27:08;101505.84;;;16.50;100.00
23261;BME280;11799;47.740;-3.390;2023-06-04T00:29:34;101509.63;;;16.47;100.00
23261;BME280;11799;47.740;-3.390;2023-06-04T00:32:00;101510.47;;;16.48;100.00
23261;BME280;11799;47.740;-3.390;2023-06-04T00:34:25;101501.09;;;16.44;100.00
23261;BME280;11799;47.740;-3.390;2023-06-04T00:36:51;101502.06;;;16.43;100.00
23261;BME280;11799;47.740;-3.390;2023-06-04T00:39:17;101490.84;;;16.39;100.00
23261;BME280;11799;47.740;-3.390;2023-06-04T00:41:42;101496.16;;;16.39;100.00
23261;BME280;11799;47.740;-3.390;2023-06-04T00:44:08;101490.00;;;16.39;100.00
23261;BME280;11799;47.740;-3.390;2023-06-04T00:46:34;101498.13;;;16.37;100.00
23261;BME280;11799;47.740;-3.390;2023-06-04T00:49:01;101500.94;;;16.36;100.00
23261;BME280;11799;47.740;-3.390;2023-06-04T00:51:30;101493.22;;;16.33;100.00
23261;BME280;11799;47.740;-3.390;2023-06-04T00:53:56;101494.91;;;16.34;100.00
23261;BME280;11799;47.740;-3.390;2023-06-04T00:56:21;101491.69;;;16.30;100.00
23261;BME280;11799;47.740;-3.390;2023-06-04T00:58:47;101489.84;;;16.31;100.00
23261;BME280;11799;47.740;-3.390;2023-06-04T01:01:21;101493.50;;;16.30;100.00
23261;BME280;11799;47.740;-3.390;2023-06-04T01:03:51;101494.63;;;16.27;100.00
23261;BME280;11799;47.740;-3.390;2023-06-04T01:06:38;101485.78;;;16.27;100.00
23261;BME280;11799;47.740;-3.390;2023-06-04T01:09:04;101486.63;;;16.27;100.00
23261;BME280;11799;47.740;-3.390;2023-06-04T01:11:39;101490.41;;;16.25;100.00
23261;BME280;11799;47.740;-3.390;2023-06-04T01:14:07;101493.22;;;16.23;100.00
23261;BME280;11799;47.740;-3.390;2023-06-04T01:16:51;101494.34;;;16.21;100.00
23261;BME280;11799;47.740;-3.390;2023-06-04T01:22:10;101496.28;;;16.18;100.00
23261;BME280;11799;47.740;-3.390;2023-06-04T01:24:52;101494.09;;;16.14;100.00
23261;BME280;11799;47.740;-3.390;2023-06-04T01:27:21;101489.59;;;16.14;100.00
23261;BME280;11799;47.740;-3.390;2023-06-04T01:29:47;101495.91;;;16.13;100.00
23261;BME280;11799;47.740;-3.390;2023-06-04T01:32:16;101491.69;;;16.11;100.00
23261;BME280;11799;47.740;-3.390;2023-06-04T01:34:48;101499.53;;;16.12;100.00
23261;BME280;11799;47.740;-3.390;2023-06-04T01:37:14;101492.66;;;16.10;100.00
23261;BME280;11799;47.740;-3.390;2023-06-04T01:39:42;101492.81;;;16.08;100.00
23261;BME280;11799;47.740;-3.390;2023-06-04T01:42:08;101495.63;;;16.07;100.00
23261;BME280;11799;47.740;-3.390;2023-06-04T01:44:34;101498.41;;;16.05;100.00
23261;BME280;11799;47.740;-3.390;2023-06-04T01:47:00;101496.88;;;16.03;100.00
23261;BME280;11799;47.740;-3.390;2023-06-04T01:49:25;101493.50;;;16.01;100.00
23261;BME280;11799;47.740;-3.390;2023-06-04T01:51:51;101493.63;;;15.99;100.00
23261;BME280;11799;47.740;-3.390;2023-06-04T01:54:16;101494.03;;;15.95;100.00
23261;BME280;11799;47.740;-3.390;2023-06-04T01:56:43;101500.22;;;15.95;100.00
23261;BME280;11799;47.740;-3.390;2023-06-04T01:59:08;101492.38;;;15.94;100.00
23261;BME280;11799;47.740;-3.390;2023-06-04T02:01:38;101496.84;;;15.93;100.00
23261;BME280;11799;47.740;-3.390;2023-06-04T02:04:03;101490.81;;;15.91;100.00
23261;BME280;11799;47.740;-3.390;2023-06-04T02:06:29;101496.28;;;15.90;100.00
23261;BME280;11799;47.740;-3.390;2023-06-04T02:08:55;101500.91;;;15.88;100.00
23261;BME280;11799;47.740;-3.390;2023-06-04T02:11:21;101503.44;;;15.89;100.00
23261;BME280;11799;47.740;-3.390;2023-06-04T02:13:47;101498.50;;;15.84;100.00
23261;BME280;11799;47.740;-3.390;2023-06-04T02:16:13;101500.47;;;15.82;100.00
23261;BME280;11799;47.740;-3.390;2023-06-04T02:18:38;101501.56;;;15.80;100.00
23261;BME280;11799;47.740;-3.390;2023-06-04T02:21:04;101502.41;;;15.80;100.00
23261;BME280;11799;47.740;-3.390;2023-06-04T02:23:29;101500.88;;;15.78;100.00
23261;BME280;11799;47.740;-3.390;2023-06-04T02:25:55;101505.34;;;15.77;100.00
23261;BME280;11799;47.740;-3.390;2023-06-04T02:28:21;101509.84;;;15.77;100.00
23261;BME280;11799;47.740;-3.390;2023-06-04T02:30:47;101502.13;;;15.74;100.00
23261;BME280;11799;47.740;-3.390;2023-06-04T02:33:13;101508.44;;;15.73;100.00
23261;BME280;11799;47.740;-3.390;2023-06-04T02:35:39;101506.75;;;15.72;100.00
23261;BME280;11799;47.740;-3.390;2023-06-04T02:38:06;101508.69;;;15.70;100.00
23261;BME280;11799;47.740;-3.390;2023-06-04T02:40:32;101507.00;;;15.69;100.00
23261;BME280;11799;47.740;-3.390;2023-06-04T02:42:58;101515.28;;;15.66;100.00
23261;BME280;11799;47.740;-3.390;2023-06-04T02:45:24;101516.94;;;15.67;100.00
23261;BME280;11799;47.740;-3.390;2023-06-04T02:47:50;101511.75;;;15.65;100.00
23261;BME280;11799;47.740;-3.390;2023-06-04T02:50:16;101507.56;;;15.63;100.00
23261;BME280;11799;47.740;-3.390;2023-06-04T02:52:42;101512.16;;;15.61;100.00
23261;BME280;11799;47.740;-3.390;2023-06-04T02:55:08;101504.47;;;15.58;100.00
23261;BME280;11799;47.740;-3.390;2023-06-04T02:57:39;101499.41;;;15.55;100.00
23261;BME280;11799;47.740;-3.390;2023-06-04T03:00:06;101505.69;;;15.53;100.00
23261;BME280;11799;47.740;-3.390;2023-06-04T03:02:39;101501.91;;;15.56;100.00
23261;BME280;11799;47.740;-3.390;2023-06-04T03:05:07;101502.91;;;15.55;100.00
23261;BME280;11799;47.740;-3.390;2023-06-04T03:07:34;101504.97;;;15.51;100.00
23261;BME280;11799;47.740;-3.390;2023-06-04T03:10:00;101496.28;;;15.49;100.00
23261;BME280;11799;47.740;-3.390;2023-06-04T03:12:26;101502.59;;;15.48;100.00
23261;BME280;11799;47.740;-3.390;2023-06-04T03:14:51;101502.72;;;15.47;100.00
23261;BME280;11799;47.740;-3.390;2023-06-04T03:17:17;101501.03;;;15.46;100.00
23261;BME280;11799;47.740;-3.390;2023-06-04T03:19:42;101497.66;;;15.44;100.00
23261;BME280;11799;47.740;-3.390;2023-06-04T03:22:09;101496.69;;;15.45;100.00
23261;BME280;11799;47.740;-3.390;2023-06-04T03:24:38;101499.34;;;15.45;100.00
23261;BME280;11799;47.740;-3.390;2023-06-04T03:27:04;101503.25;;;15.41;100.00
23261;BME280;11799;47.740;-3.390;2023-06-04T03:29:32;101499.19;;;15.37;100.00
23261;BME280;11799;47.740;-3.390;2023-06-04T03:32:00;101494.84;;;15.36;100.00
23261;BME280;11799;47.740;-3.390;2023-06-04T03:34:26;101494.00;;;15.35;100.00
23261;BME280;11799;47.740;-3.390;2023-06-04T03:36:55;101493.28;;;15.33;100.00
23261;BME280;11799;47.740;-3.390;2023-06-04T03:39:21;101497.75;;;15.33;100.00
23261;BME280;11799;47.740;-3.390;2023-06-04T03:41:48;101491.72;;;15.31;100.00
23261;BME280;11799;47.740;-3.390;2023-06-04T03:44:16;101485.97;;;15.26;100.00
23261;BME280;11799;47.740;-3.390;2023-06-04T03:46:45;101490.56;;;15.24;100.00
23261;BME280;11799;47.740;-3.390;2023-06-04T03:49:13;101487.34;;;15.20;100.00
23261;BME280;11799;47.740;-3.390;2023-06-04T03:51:41;101486.63;;;15.18;100.00
23261;BME280;11799;47.740;-3.390;2023-06-04T03:54:07;101486.03;;;15.14;100.00
23261;BME280;11799;47.740;-3.390;2023-06-04T03:56:33;101494.28;;;15.11;100.00
23261;BME280;11799;47.740;-3.390;2023-06-04T03:58:59;101494.41;;;15.10;100.00
23261;BME280;11799;47.740;-3.390;2023-06-04T04:01:25;101493.84;;;15.06;100.00
23261;BME280;11799;47.740;-3.390;2023-06-04T04:03:52;101488.09;;;15.01;100.00
23261;BME280;11799;47.740;-3.390;2023-06-04T04:06:18;101488.94;;;15.02;100.00
23261;BME280;11799;47.740;-3.390;2023-06-04T04:08:44;101497.06;;;15.00;100.00
23261;BME280;11799;47.740;-3.390;2023-06-04T04:11:16;101504.19;;;15.00;100.00
23261;BME280;11799;47.740;-3.390;2023-06-04T04:13:44;101487.53;;;14.98;100.00
23261;BME280;11799;47.740;-3.390;2023-06-04T04:16:10;101492.13;;;14.96;100.00
23261;BME280;11799;47.740;-3.390;2023-06-04T04:18:36;101497.72;;;14.93;100.00
23261;BME280;11799;47.740;-3.390;2023-06-04T04:21:03;101499.41;;;14.94;100.00
23261;BME280;11799;47.740;-3.390;2023-06-04T04:23:29;101494.34;;;14.91;100.00
23261;BME280;11799;47.740;-3.390;2023-06-04T04:25:55;101496.28;;;14.89;100.00
23261;BME280;11799;47.740;-3.390;2023-06-04T04:28:25;101497.84;;;14.91;100.00
23261;BME280;11799;47.740;-3.390;2023-06-04T04:30:56;101506.06;;;14.88;100.00
23261;BME280;11799;47.740;-3.390;2023-06-04T04:33:23;101507.88;;;14.88;100.00
23261;BME280;11799;47.740;-3.390;2023-06-04T04:35:51;101504.97;;;14.91;100.00
23261;BME280;11799;47.740;-3.390;2023-06-04T04:38:20;101513.22;;;14.88;100.00
23261;BME280;11799;47.740;-3.390;2023-06-04T04:40:54;101515.88;;;14.88;100.00
23261;BME280;11799;47.740;-3.390;2023-06-04T04:43:32;101516.84;;;14.86;100.00
23261;BME280;11799;47.740;-3.390;2023-06-04T04:46:04;101514.06;;;14.88;100.00
23261;BME280;11799;47.740;-3.390;2023-06-04T04:48:30;101519.38;;;14.88;100.00
23261;BME280;11799;47.740;-3.390;2023-06-04T04:50:56;101521.78;;;14.91;100.00
23261;BME280;11799;47.740;-3.390;2023-06-04T04:53:22;101511.13;;;14.91;100.00
23261;BME280;11799;47.740;-3.390;2023-06-04T04:55:48;101506.66;;;14.92;100.00
23261;BME280;11799;47.740;-3.390;2023-06-04T04:58:14;101515.47;;;14.92;100.00
23261;BME280;11799;47.740;-3.390;2023-06-04T05:00:40;101518.97;;;14.93;100.00
23261;BME280;11799;47.740;-3.390;2023-06-04T05:03:06;101506.53;;;14.93;100.00
23261;BME280;11799;47.740;-3.390;2023-06-04T05:05:32;101515.81;;;14.99;100.00
23261;BME280;11799;47.740;-3.390;2023-06-04T05:08:00;101513.00;;;15.00;100.00
23261;BME280;11799;47.740;-3.390;2023-06-04T05:10:31;101526.03;;;15.03;100.00
23261;BME280;11799;47.740;-3.390;2023-06-04T05:12:59;101525.63;;;15.08;100.00
23261;BME280;11799;47.740;-3.390;2023-06-04T05:15:32;101528.75;;;15.13;100.00
23261;BME280;11799;47.740;-3.390;2023-06-04T05:17:59;101521.22;;;15.18;100.00
23261;BME280;11799;47.740;-3.390;2023-06-04T05:20:29;101526.13;;;15.23;100.00
23261;BME280;11799;47.740;-3.390;2023-06-04T05:22:55;101527.28;;;15.30;100.00
23261;BME280;11799;47.740;-3.390;2023-06-04T05:25:22;101526.91;;;15.34;100.00
23261;BME280;11799;47.740;-3.390;2023-06-04T05:27:48;101526.22;;;15.42;100.00
23261;BME280;11799;47.740;-3.390;2023-06-04T05:30:15;101536.22;;;15.49;100.00
23261;BME280;11799;47.740;-3.390;2023-06-04T05:32:41;101528.31;;;15.59;100.00
23261;BME280;11799;47.740;-3.390;2023-06-04T05:35:09;101529.16;;;15.69;100.00
23261;BME280;11799;47.740;-3.390;2023-06-04T05:37:37;101527.94;;;15.83;100.00
23261;BME280;11799;47.740;-3.390;2023-06-04T05:40:04;101530.34;;;15.96;100.00
23261;BME280;11799;47.740;-3.390;2023-06-04T05:42:31;101529.84;;;16.11;100.00
23261;BME280;11799;47.740;-3.390;2023-06-04T05:44:57;101528.56;;;16.25;100.00
23261;BME280;11799;47.740;-3.390;2023-06-04T05:47:22;101522.53;;;16.33;100.00
23261;BME280;11799;47.740;-3.390;2023-06-04T05:49:48;101529.00;;;16.40;100.00
23261;BME280;11799;47.740;-3.390;2023-06-04T05:52:14;101528.72;;;16.52;100.00
23261;BME280;11799;47.740;-3.390;2023-06-04T05:54:41;101529.97;;;16.77;100.00
23261;BME280;11799;47.740;-3.390;2023-06-04T05:57:07;101533.63;;;16.96;100.00
23261;BME280;11799;47.740;-3.390;2023-06-04T05:59:34;101533.72;;;17.13;100.00
23261;BME280;11799;47.740;-3.390;2023-06-04T06:02:03;101532.13;;;17.30;100.00
23261;BME280;11799;47.740;-3.390;2023-06-04T06:04:28;101532.31;;;17.46;100.00
23261;BME280;11799;47.740;-3.390;2023-06-04T06:06:55;101529.91;;;17.53;100.00
23261;BME280;11799;47.740;-3.390;2023-06-04T06:09:20;101535.78;;;17.66;100.00
23261;BME280;11799;47.740;-3.390;2023-06-04T06:11:46;101531.53;;;17.73;100.00
23261;BME280;11799;47.740;-3.390;2023-06-04T06:14:12;101527.69;;;17.86;100.00
23261;BME280;11799;47.740;-3.390;2023-06-04T06:16:37;101530.28;;;17.95;100.00
23261;BME280;11799;47.740;-3.390;2023-06-04T06:19:03;101527.16;;;18.00;100.00
23261;BME280;11799;47.740;-3.390;2023-06-04T06:21:28;101531.34;;;18.02;99.94
23261;BME280;11799;47.740;-3.390;2023-06-04T06:23:55;101531.00;;;18.15;100.00
23261;BME280;11799;47.740;-3.390;2023-06-04T06:26:20;101526.44;;;18.25;99.73
23261;BME280;11799;47.740;-3.390;2023-06-04T06:28:51;101534.63;;;18.41;98.30
23261;BME280;11799;47.740;-3.390;2023-06-04T06:31:17;101535.88;;;18.55;97.14
23261;BME280;11799;47.740;-3.390;2023-06-04T06:33:42;101526.81;;;18.66;93.02
23261;BME280;11799;47.740;-3.390;2023-06-04T06:36:10;101533.69;;;18.68;91.47
23261;BME280;11799;47.740;-3.390;2023-06-04T06:38:37;101531.00;;;18.68;90.44
23261;BME280;11799;47.740;-3.390;2023-06-04T06:41:03;101534.38;;;18.70;89.77
23261;BME280;11799;47.740;-3.390;2023-06-04T06:43:28;101535.88;;;18.91;90.53
23261;BME280;11799;47.740;-3.390;2023-06-04T06:45:54;101534.19;;;19.16;86.44
23261;BME280;11799;47.740;-3.390;2023-06-04T06:48:20;101527.97;;;19.41;81.63
23261;BME280;11799;47.740;-3.390;2023-06-04T06:50:45;101530.00;;;19.81;80.61
23261;BME280;11799;47.740;-3.390;2023-06-04T06:53:11;101531.47;;;20.18;75.08
23261;BME280;11799;47.740;-3.390;2023-06-04T06:55:37;101534.72;;;20.62;72.57
23261;BME280;11799;47.740;-3.390;2023-06-04T06:58:02;101527.13;;;20.98;67.58
23261;BME280;11799;47.740;-3.390;2023-06-04T07:00:28;101528.44;;;21.34;62.89
23261;BME280;11799;47.740;-3.390;2023-06-04T07:02:53;101530.31;;;21.73;62.87
23261;BME280;11799;47.740;-3.390;2023-06-04T07:05:19;101535.53;;;22.05;60.21
23261;BME280;11799;47.740;-3.390;2023-06-04T07:07:45;101533.00;;;22.35;57.69
23261;BME280;11799;47.740;-3.390;2023-06-04T07:10:12;101537.34;;;22.59;54.90
23261;BME280;11799;47.740;-3.390;2023-06-04T07:12:38;101536.19;;;22.76;53.84
23261;BME280;11799;47.740;-3.390;2023-06-04T07:15:05;101532.28;;;23.01;53.67
23261;BME280;11799;47.740;-3.390;2023-06-04T07:17:31;101529.78;;;23.29;52.12
23261;BME280;11799;47.740;-3.390;2023-06-04T07:19:57;101536.19;;;23.43;50.85
23261;BME280;11799;47.740;-3.390;2023-06-04T07:22:22;101535.66;;;23.62;50.93
23261;BME280;11799;47.740;-3.390;2023-06-04T07:24:47;101540.47;;;23.82;48.89
23261;BME280;11799;47.740;-3.390;2023-06-04T07:27:14;101551.16;;;23.90;48.47
23261;BME280;11799;47.740;-3.390;2023-06-04T07:29:42;101556.25;;;23.99;46.27
23261;BME280;11799;47.740;-3.390;2023-06-04T07:32:08;101563.56;;;24.20;47.86
23261;BME280;11799;47.740;-3.390;2023-06-04T07:34:33;101559.53;;;24.31;47.08
23261;BME280;11799;47.740;-3.390;2023-06-04T07:36:59;101553.22;;;24.45;47.11
23261;BME280;11799;47.740;-3.390;2023-06-04T07:39:24;101549.56;;;24.53;45.85
23261;BME280;11799;47.740;-3.390;2023-06-04T07:41:50;101554.19;;;24.59;44.84
23261;BME280;11799;47.740;-3.390;2023-06-04T07:44:16;101551.38;;;24.67;45.80
23261;BME280;11799;47.740;-3.390;2023-06-04T07:46:41;101561.78;;;24.70;44.62
23261;BME280;11799;47.740;-3.390;2023-06-04T07:49:08;101562.19;;;24.67;43.77
23261;BME280;11799;47.740;-3.390;2023-06-04T07:51:33;101560.31;;;24.67;45.48
23261;BME280;11799;47.740;-3.390;2023-06-04T07:54:00;101554.59;;;24.77;45.95
23261;BME280;11799;47.740;-3.390;2023-06-04T07:56:26;101559.22;;;24.83;45.12
23261;BME280;11799;47.740;-3.390;2023-06-04T07:58:52;101552.75;;;24.84;44.26
23261;BME280;11799;47.740;-3.390;2023-06-04T08:01:17;101551.38;;;24.95;45.41
23261;BME280;11799;47.740;-3.390;2023-06-04T08:03:43;101556.97;;;24.93;44.52
23261;BME280;11799;47.740;-3.390;2023-06-04T08:06:09;101560.78;;;24.99;44.54
23261;BME280;11799;47.740;-3.390;2023-06-04T08:08:35;101553.34;;;25.01;43.76
23261;BME280;11799;47.740;-3.390;2023-06-04T08:11:00;101564.19;;;25.08;44.49
23261;BME280;11799;47.740;-3.390;2023-06-04T08:13:26;101542.81;;;25.13;44.28
23261;BME280;11799;47.740;-3.390;2023-06-04T08:15:51;101542.47;;;25.22;45.16
23261;BME280;11799;47.740;-3.390;2023-06-04T08:18:17;101547.94;;;25.29;45.72
23261;BME280;11799;47.740;-3.390;2023-06-04T08:20:42;101546.44;;;25.26;46.59
23261;BME280;11799;47.740;-3.390;2023-06-04T08:23:08;101548.97;;;25.28;45.75
23261;BME280;11799;47.740;-3.390;2023-06-04T08:25:34;101553.25;;;25.16;46.98
23261;BME280;11799;47.740;-3.390;2023-06-04T08:27:59;101548.56;;;25.03;46.45
23261;BME280;11799;47.740;-3.390;2023-06-04T08:30:25;101547.00;;;24.94;46.98
23261;BME280;11799;47.740;-3.390;2023-06-04T08:32:53;101545.06;;;24.81;46.37
23261;BME280;11799;47.740;-3.390;2023-06-04T08:35:18;101542.69;;;24.72;46.35
23261;BME280;11799;47.740;-3.390;2023-06-04T08:37:44;101548.22;;;24.63;46.29
23261;BME280;11799;47.740;-3.390;2023-06-04T08:40:10;101549.97;;;24.50;49.11
23261;BME280;11799;47.740;-3.390;2023-06-04T08:42:41;101551.41;;;24.31;48.49
23261;BME280;11799;47.740;-3.390;2023-06-04T08:45:13;101544.97;;;24.25;48.64
23261;BME280;11799;47.740;-3.390;2023-06-04T08:47:48;101544.19;;;24.17;47.89
23261;BME280;11799;47.740;-3.390;2023-06-04T08:50:17;101553.16;;;24.02;51.28
23261;BME280;11799;47.740;-3.390;2023-06-04T08:52:42;101540.16;;;23.91;52.00
23261;BME280;11799;47.740;-3.390;2023-06-04T08:55:10;101549.00;;;23.85;50.65
23261;BME280;11799;47.740;-3.390;2023-06-04T08:57:38;101541.66;;;23.79;52.50
23261;BME280;11799;47.740;-3.390;2023-06-04T09:00:04;101534.16;;;23.75;51.75
23261;BME280;11799;47.740;-3.390;2023-06-04T09:02:35;101536.97;;;23.66;51.95
23261;BME280;11799;47.740;-3.390;2023-06-04T09:05:02;101535.31;;;23.65;53.70
23261;BME280;11799;47.740;-3.390;2023-06-04T09:07:29;101536.88;;;23.60;54.23
23261;BME280;11799;47.740;-3.390;2023-06-04T09:09:56;101534.75;;;23.55;56.91
23261;BME280;11799;47.740;-3.390;2023-06-04T09:12:24;101528.72;;;23.53;54.33
23261;BME280;11799;47.740;-3.390;2023-06-04T09:14:50;101528.53;;;23.55;58.13
23261;BME280;11799;47.740;-3.390;2023-06-04T09:17:24;101534.25;;;23.52;53.77
23261;BME280;11799;47.740;-3.390;2023-06-04T09:19:50;101540.66;;;23.51;56.23
23261;BME280;11799;47.740;-3.390;2023-06-04T09:22:16;101529.88;;;23.51;56.16
23261;BME280;11799;47.740;-3.390;2023-06-04T09:24:43;101537.31;;;23.49;56.38
23261;BME280;11799;47.740;-3.390;2023-06-04T09:27:20;101532.13;;;23.47;57.25
23261;BME280;11799;47.740;-3.390;2023-06-04T09:29:57;101541.03;;;23.48;58.27
23261;BME280;11799;47.740;-3.390;2023-06-04T09:32:30;101543.53;;;23.49;55.58
23261;BME280;11799;47.740;-3.390;2023-06-04T09:35:11;101529.03;;;23.50;57.28
23261;BME280;11799;47.740;-3.390;2023-06-04T09:37:38;101545.53;;;23.55;60.66
23261;BME280;11799;47.740;-3.390;2023-06-04T09:40:04;101532.31;;;23.60;59.55
23261;BME280;11799;47.740;-3.390;2023-06-04T09:42:42;101543.19;;;23.67;55.57
23261;BME280;11799;47.740;-3.390;2023-06-04T09:45:08;101546.16;;;23.72;56.70
23261;BME280;11799;47.740;-3.390;2023-06-04T09:47:44;101540.94;;;23.70;54.08
23261;BME280;11799;47.740;-3.390;2023-06-04T09:50:13;101540.56;;;23.74;54.84
23261;BME280;11799;47.740;-3.390;2023-06-04T09:52:38;101546.22;;;23.79;53.96
23261;BME280;11799;47.740;-3.390;2023-06-04T09:55:18;101551.97;;;23.90;49.72
23261;BME280;11799;47.740;-3.390;2023-06-04T09:57:49;101551.69;;;24.00;50.75
23261;BME280;11799;47.740;-3.390;2023-06-04T10:00:22;101551.56;;;24.08;51.28
23261;BME280;11799;47.740;-3.390;2023-06-04T10:02:50;101551.19;;;24.11;49.20
23261;BME280;11799;47.740;-3.390;2023-06-04T10:05:19;101547.09;;;24.15;48.22
23261;BME280;11799;47.740;-3.390;2023-06-04T10:07:50;101548.56;;;24.18;47.22
23261;BME280;11799;47.740;-3.390;2023-06-04T10:10:19;101546.72;;;24.18;45.84
23261;BME280;11799;47.740;-3.390;2023-06-04T10:12:50;101546.53;;;24.20;44.96
23261;BME280;11799;47.740;-3.390;2023-06-04T10:15:17;101544.66;;;24.20;46.52
23261;BME280;11799;47.740;-3.390;2023-06-04T10:17:42;101548.50;;;24.26;47.84
23261;BME280;11799;47.740;-3.390;2023-06-04T10:20:09;101550.59;;;24.30;47.46
23261;BME280;11799;47.740;-3.390;2023-06-04T10:22:36;101545.53;;;24.42;44.78
23261;BME280;11799;47.740;-3.390;2023-06-04T10:25:02;101547.72;;;24.53;45.47
23261;BME280;11799;47.740;-3.390;2023-06-04T10:27:31;101550.94;;;24.63;44.62
23261;BME280;11799;47.740;-3.390;2023-06-04T10:29:58;101547.38;;;24.63;43.68
23261;BME280;11799;47.740;-3.390;2023-06-04T10:32:27;101544.22;;;24.59;45.88
23261;BME280;11799;47.740;-3.390;2023-06-04T10:34:54;101549.44;;;24.61;48.07
23261;BME280;11799;47.740;-3.390;2023-06-04T10:37:21;101536.59;;;24.63;46.05
23261;BME280;11799;47.740;-3.390;2023-06-04T10:39:55;101544.31;;;24.66;45.60
23261;BME280;11799;47.740;-3.390;2023-06-04T10:42:21;101548.09;;;24.72;44.18
23261;BME280;11799;47.740;-3.390;2023-06-04T10:44:49;101548.53;;;24.75;44.60
23261;BME280;11799;47.740;-3.390;2023-06-04T10:47:25;101551.88;;;24.77;43.53
23261;BME280;11799;47.740;-3.390;2023-06-04T10:49:53;101545.25;;;24.80;44.94
23261;BME280;11799;47.740;-3.390;2023-06-04T10:52:19;101541.94;;;24.84;42.43
23261;BME280;11799;47.740;-3.390;2023-06-04T10:54:46;101539.03;;;24.86;42.56
23261;BME280;11799;47.740;-3.390;2023-06-04T10:57:17;101530.78;;;24.94;42.88
23261;BME280;11799;47.740;-3.390;2023-06-04T10:59:56;101527.34;;;25.00;44.43
23261;BME280;11799;47.740;-3.390;2023-06-04T11:02:22;101527.19;;;25.08;44.97
23261;BME280;11799;47.740;-3.390;2023-06-04T11:04:58;101533.91;;;25.19;43.99
23261;BME280;11799;47.740;-3.390;2023-06-04T11:07:27;101533.19;;;25.31;42.75
23261;BME280;11799;47.740;-3.390;2023-06-04T11:09:52;101527.25;;;25.56;42.79
23261;BME280;11799;47.740;-3.390;2023-06-04T11:12:18;101536.78;;;25.86;43.79
23261;BME280;11799;47.740;-3.390;2023-06-04T11:14:57;101531.69;;;26.24;41.19
23261;BME280;11799;47.740;-3.390;2023-06-04T11:17:23;101531.75;;;26.57;41.10
23261;BME280;11799;47.740;-3.390;2023-06-04T11:19:48;101520.72;;;26.85;41.85
23261;BME280;11799;47.740;-3.390;2023-06-04T11:22:14;101534.91;;;27.01;38.83
23261;BME280;11799;47.740;-3.390;2023-06-04T11:24:40;101525.09;;;27.13;39.68
23261;BME280;11799;47.740;-3.390;2023-06-04T11:27:06;101537.78;;;27.25;38.28
23261;BME280;11799;47.740;-3.390;2023-06-04T11:29:32;101532.97;;;27.27;37.12
23261;BME280;11799;47.740;-3.390;2023-06-04T11:31:57;101530.25;;;27.27;37.96
23261;BME280;11799;47.740;-3.390;2023-06-04T11:34:30;101530.88;;;27.23;36.45
23261;BME280;11799;47.740;-3.390;2023-06-04T11:37:10;101533.19;;;27.26;37.72
23261;BME280;11799;47.740;-3.390;2023-06-04T11:39:36;101532.13;;;27.27;36.65
23261;BME280;11799;47.740;-3.390;2023-06-04T11:42:05;101522.94;;;27.35;36.95
23261;BME280;11799;47.740;-3.390;2023-06-04T11:44:31;101524.34;;;27.50;35.54
23261;BME280;11799;47.740;-3.390;2023-06-04T11:46:57;101519.72;;;27.71;37.23
23261;BME280;11799;47.740;-3.390;2023-06-04T11:49:22;101515.66;;;27.86;36.09
23261;BME280;11799;47.740;-3.390;2023-06-04T11:51:49;101525.84;;;27.98;37.59
23261;BME280;11799;47.740;-3.390;2023-06-04T11:54:16;101521.59;;;28.08;36.45
23261;BME280;11799;47.740;-3.390;2023-06-04T11:56:43;101517.59;;;28.17;35.28
23261;BME280;11799;47.740;-3.390;2023-06-04T11:59:13;101514.81;;;28.31;35.84
23261;BME280;11799;47.740;-3.390;2023-06-04T12:01:40;101516.28;;;28.58;35.93
23261;BME280;11799;47.740;-3.390;2023-06-04T12:04:17;101508.56;;;28.80;35.05
23261;BME280;11799;47.740;-3.390;2023-06-04T12:06:56;101509.03;;;29.20;34.40
23261;BME280;11799;47.740;-3.390;2023-06-04T12:09:28;101510.91;;;29.56;33.04
23261;BME280;11799;47.740;-3.390;2023-06-04T12:12:00;101503.16;;;29.89;31.58
23261;BME280;11799;47.740;-3.390;2023-06-04T12:14:27;101497.63;;;30.26;32.05
23261;BME280;11799;47.740;-3.390;2023-06-04T12:17:00;101495.56;;;30.63;30.95
23261;BME280;11799;47.740;-3.390;2023-06-04T12:19:27;101491.91;;;30.93;30.66
23261;BME280;11799;47.740;-3.390;2023-06-04T12:24:26;101487.16;;;31.75;29.43
23261;BME280;11799;47.740;-3.390;2023-06-04T12:27:04;101493.91;;;32.01;28.26
23261;BME280;11799;47.740;-3.390;2023-06-04T12:29:31;101492.25;;;32.28;27.92
23261;BME280;11799;47.740;-3.390;2023-06-04T12:32:03;101488.69;;;32.28;28.03
23261;BME280;11799;47.740;-3.390;2023-06-04T12:34:40;101484.78;;;32.57;27.97
23261;BME280;11799;47.740;-3.390;2023-06-04T12:37:06;101489.19;;;32.58;28.41
23261;BME280;11799;47.740;-3.390;2023-06-04T12:39:35;101489.59;;;32.67;27.48
23261;BME280;11799;47.740;-3.390;2023-06-04T12:42:07;101497.97;;;32.77;26.69